sensor_id;sensor_type;location;lat;lon;timestamp;P1;durP1;ratioP1;P2;durP2;ratioP2
62580;SDS011;48640;48.770;9.148;2023-11-19T00:00:05;1.63;;;1.00;;
62580;SDS011;48640;48.770;9.148;2023-11-19T00:02:36;1.80;;;1.15;;
62580;SDS011;48640;48.770;9.148;2023-11-19T00:05:03;2.45;;;1.08;;
62580;SDS011;48640;48.770;9.148;2023-11-19T00:07:33;1.30;;;1.10;;
62580;SDS011;48640;48.770;9.148;2023-11-19T00:10:00;1.25;;;0.85;;
62580;SDS011;48640;48.770;9.148;2023-11-19T00:12:36;1.13;;;0.65;;
62580;SDS011;48640;48.770;9.148;2023-11-19T00:15:05;0.90;;;0.70;;
62580;SDS011;48640;48.770;9.148;2023-11-19T00:17:36;2.25;;;0.77;;
62580;SDS011;48640;48.770;9.148;2023-11-19T00:20:10;1.67;;;0.80;;
62580;SDS011;48640;48.770;9.148;2023-11-19T00:22:39;1.98;;;0.55;;
62580;SDS011;48640;48.770;9.148;2023-11-19T00:25:07;1.25;;;0.52;;
62580;SDS011;48640;48.770;9.148;2023-11-19T00:27:34;1.05;;;0.55;;
62580;SDS011;48640;48.770;9.148;2023-11-19T00:30:02;2.40;;;0.60;;
62580;SDS011;48640;48.770;9.148;2023-11-19T00:32:30;0.80;;;0.40;;
62580;SDS011;48640;48.770;9.148;2023-11-19T00:34:57;0.68;;;0.40;;
62580;SDS011;48640;48.770;9.148;2023-11-19T00:37:24;1.40;;;0.68;;
62580;SDS011;48640;48.770;9.148;2023-11-19T00:39:53;0.82;;;0.60;;
62580;SDS011;48640;48.770;9.148;2023-11-19T00:42:21;3.28;;;0.57;;
62580;SDS011;48640;48.770;9.148;2023-11-19T00:44:49;0.77;;;0.50;;
62580;SDS011;48640;48.770;9.148;2023-11-19T00:47:16;0.77;;;0.47;;
62580;SDS011;48640;48.770;9.148;2023-11-19T00:49:45;1.15;;;0.75;;
62580;SDS011;48640;48.770;9.148;2023-11-19T00:52:13;0.90;;;0.50;;
62580;SDS011;48640;48.770;9.148;2023-11-19T00:54:40;1.33;;;0.65;;
62580;SDS011;48640;48.770;9.148;2023-11-19T00:57:08;1.85;;;0.70;;
62580;SDS011;48640;48.770;9.148;2023-11-19T00:59:35;1.20;;;0.70;;
62580;SDS011;48640;48.770;9.148;2023-11-19T01:02:02;1.60;;;0.80;;
62580;SDS011;48640;48.770;9.148;2023-11-19T01:04:33;0.47;;;0.40;;
62580;SDS011;48640;48.770;9.148;2023-11-19T01:07:01;0.95;;;0.43;;
62580;SDS011;48640;48.770;9.148;2023-11-19T01:09:30;2.47;;;0.80;;
62580;SDS011;48640;48.770;9.148;2023-11-19T01:11:59;1.05;;;0.68;;
62580;SDS011;48640;48.770;9.148;2023-11-19T01:14:28;0.82;;;0.30;;
62580;SDS011;48640;48.770;9.148;2023-11-19T01:16:55;0.38;;;0.38;;
62580;SDS011;48640;48.770;9.148;2023-11-19T01:19:22;0.70;;;0.30;;
62580;SDS011;48640;48.770;9.148;2023-11-19T01:21:50;0.57;;;0.30;;
62580;SDS011;48640;48.770;9.148;2023-11-19T01:24:17;0.80;;;0.20;;
62580;SDS011;48640;48.770;9.148;2023-11-19T01:26:44;0.20;;;0.15;;
62580;SDS011;48640;48.770;9.148;2023-11-19T01:29:11;9.00;;;0.95;;
62580;SDS011;48640;48.770;9.148;2023-11-19T01:31:41;0.17;;;0.10;;
62580;SDS011;48640;48.770;9.148;2023-11-19T01:34:08;0.35;;;0.20;;
62580;SDS011;48640;48.770;9.148;2023-11-19T01:36:36;0.20;;;0.20;;
62580;SDS011;48640;48.770;9.148;2023-11-19T01:39:02;0.10;;;0.10;;
62580;SDS011;48640;48.770;9.148;2023-11-19T01:41:33;0.20;;;0.20;;
62580;SDS011;48640;48.770;9.148;2023-11-19T01:44:00;0.40;;;0.22;;
62580;SDS011;48640;48.770;9.148;2023-11-19T01:46:26;0.30;;;0.20;;
62580;SDS011;48640;48.770;9.148;2023-11-19T01:48:55;0.00;;;0.00;;
62580;SDS011;48640;48.770;9.148;2023-11-19T01:51:22;0.25;;;0.20;;
62580;SDS011;48640;48.770;9.148;2023-11-19T01:53:50;0.25;;;0.20;;
62580;SDS011;48640;48.770;9.148;2023-11-19T01:56:17;0.15;;;0.10;;
62580;SDS011;48640;48.770;9.148;2023-11-19T01:58:44;0.25;;;0.10;;
62580;SDS011;48640;48.770;9.148;2023-11-19T02:01:13;0.10;;;0.10;;
62580;SDS011;48640;48.770;9.148;2023-11-19T02:03:40;0.10;;;0.10;;
62580;SDS011;48640;48.770;9.148;2023-11-19T02:06:10;0.05;;;0.05;;
62580;SDS011;48640;48.770;9.148;2023-11-19T02:08:37;0.88;;;0.30;;
62580;SDS011;48640;48.770;9.148;2023-11-19T02:11:04;0.05;;;0.05;;
62580;SDS011;48640;48.770;9.148;2023-11-19T02:13:32;0.10;;;0.10;;
62580;SDS011;48640;48.770;9.148;2023-11-19T02:16:01;0.10;;;0.00;;
62580;SDS011;48640;48.770;9.148;2023-11-19T02:18:28;0.63;;;0.20;;
62580;SDS011;48640;48.770;9.148;2023-11-19T02:20:55;0.13;;;0.08;;
62580;SDS011;48640;48.770;9.148;2023-11-19T02:23:25;0.82;;;0.50;;
62580;SDS011;48640;48.770;9.148;2023-11-19T02:26:03;0.00;;;0.00;;
62580;SDS011;48640;48.770;9.148;2023-11-19T02:28:40;0.28;;;0.25;;
62580;SDS011;48640;48.770;9.148;2023-11-19T02:31:08;0.30;;;0.17;;
62580;SDS011;48640;48.770;9.148;2023-11-19T02:33:35;0.45;;;0.40;;
62580;SDS011;48640;48.770;9.148;2023-11-19T02:36:02;0.77;;;0.08;;
62580;SDS011;48640;48.770;9.148;2023-11-19T02:38:30;0.43;;;0.20;;
62580;SDS011;48640;48.770;9.148;2023-11-19T02:40:57;0.00;;;0.00;;
62580;SDS011;48640;48.770;9.148;2023-11-19T02:43:24;0.10;;;0.10;;
62580;SDS011;48640;48.770;9.148;2023-11-19T02:45:53;0.00;;;0.00;;
62580;SDS011;48640;48.770;9.148;2023-11-19T02:48:20;0.37;;;0.30;;
62580;SDS011;48640;48.770;9.148;2023-11-19T02:50:47;0.43;;;0.10;;
62580;SDS011;48640;48.770;9.148;2023-11-19T02:53:14;0.20;;;0.20;;
62580;SDS011;48640;48.770;9.148;2023-11-19T02:55:42;0.10;;;0.10;;
62580;SDS011;48640;48.770;9.148;2023-11-19T02:58:14;0.17;;;0.10;;
62580;SDS011;48640;48.770;9.148;2023-11-19T03:00:48;0.85;;;0.13;;
62580;SDS011;48640;48.770;9.148;2023-11-19T03:03:23;0.10;;;0.10;;
62580;SDS011;48640;48.770;9.148;2023-11-19T03:05:56;0.00;;;0.00;;
62580;SDS011;48640;48.770;9.148;2023-11-19T03:08:23;0.20;;;0.10;;
62580;SDS011;48640;48.770;9.148;2023-11-19T03:10:49;0.17;;;0.10;;
62580;SDS011;48640;48.770;9.148;2023-11-19T03:13:16;0.00;;;0.00;;
62580;SDS011;48640;48.770;9.148;2023-11-19T03:15:43;0.13;;;0.10;;
62580;SDS011;48640;48.770;9.148;2023-11-19T03:18:10;0.10;;;0.00;;
62580;SDS011;48640;48.770;9.148;2023-11-19T03:20:39;0.10;;;0.05;;
62580;SDS011;48640;48.770;9.148;2023-11-19T03:23:06;0.15;;;0.10;;
62580;SDS011;48640;48.770;9.148;2023-11-19T03:25:32;0.52;;;0.20;;
62580;SDS011;48640;48.770;9.148;2023-11-19T03:28:00;0.10;;;0.00;;
62580;SDS011;48640;48.770;9.148;2023-11-19T03:30:28;0.10;;;0.10;;
62580;SDS011;48640;48.770;9.148;2023-11-19T03:32:56;0.13;;;0.10;;
62580;SDS011;48640;48.770;9.148;2023-11-19T03:35:23;0.55;;;0.20;;
62580;SDS011;48640;48.770;9.148;2023-11-19T03:37:52;0.10;;;0.10;;
62580;SDS011;48640;48.770;9.148;2023-11-19T03:40:19;0.47;;;0.20;;
62580;SDS011;48640;48.770;9.148;2023-11-19T03:42:46;0.40;;;0.15;;
62580;SDS011;48640;48.770;9.148;2023-11-19T03:45:13;0.20;;;0.10;;
62580;SDS011;48640;48.770;9.148;2023-11-19T03:47:40;0.20;;;0.10;;
62580;SDS011;48640;48.770;9.148;2023-11-19T03:50:07;0.32;;;0.20;;
62580;SDS011;48640;48.770;9.148;2023-11-19T03:52:34;0.05;;;0.03;;
62580;SDS011;48640;48.770;9.148;2023-11-19T03:55:03;0.28;;;0.10;;
62580;SDS011;48640;48.770;9.148;2023-11-19T03:57:30;0.20;;;0.07;;
62580;SDS011;48640;48.770;9.148;2023-11-19T03:59:57;0.00;;;0.00;;
62580;SDS011;48640;48.770;9.148;2023-11-19T04:02:24;0.10;;;0.10;;
62580;SDS011;48640;48.770;9.148;2023-11-19T04:04:53;0.35;;;0.13;;
62580;SDS011;48640;48.770;9.148;2023-11-19T04:07:20;0.13;;;0.13;;
62580;SDS011;48640;48.770;9.148;2023-11-19T04:09:47;0.30;;;0.17;;
62580;SDS011;48640;48.770;9.148;2023-11-19T04:12:16;0.00;;;0.00;;
62580;SDS011;48640;48.770;9.148;2023-11-19T04:14:42;1.13;;;0.17;;
62580;SDS011;48640;48.770;9.148;2023-11-19T04:17:09;0.22;;;0.10;;
62580;SDS011;48640;48.770;9.148;2023-11-19T04:19:36;0.00;;;0.00;;
62580;SDS011;48640;48.770;9.148;2023-11-19T04:22:06;0.38;;;0.28;;
62580;SDS011;48640;48.770;9.148;2023-11-19T04:24:33;0.10;;;0.00;;
62580;SDS011;48640;48.770;9.148;2023-11-19T04:27:00;0.50;;;0.22;;
62580;SDS011;48640;48.770;9.148;2023-11-19T04:29:28;0.10;;;0.10;;
62580;SDS011;48640;48.770;9.148;2023-11-19T04:31:56;0.00;;;0.00;;
62580;SDS011;48640;48.770;9.148;2023-11-19T04:34:23;0.22;;;0.13;;
62580;SDS011;48640;48.770;9.148;2023-11-19T04:36:51;0.00;;;0.00;;
62580;SDS011;48640;48.770;9.148;2023-11-19T04:39:17;0.10;;;0.00;;
62580;SDS011;48640;48.770;9.148;2023-11-19T04:41:48;0.65;;;0.35;;
62580;SDS011;48640;48.770;9.148;2023-11-19T04:44:16;0.05;;;0.05;;
62580;SDS011;48640;48.770;9.148;2023-11-19T04:46:45;0.43;;;0.10;;
62580;SDS011;48640;48.770;9.148;2023-11-19T04:49:12;0.08;;;0.05;;
62580;SDS011;48640;48.770;9.148;2023-11-19T04:51:40;0.30;;;0.20;;
62580;SDS011;48640;48.770;9.148;2023-11-19T04:54:07;0.15;;;0.10;;
62580;SDS011;48640;48.770;9.148;2023-11-19T04:56:35;0.10;;;0.10;;
62580;SDS011;48640;48.770;9.148;2023-11-19T04:59:02;0.05;;;0.00;;
62580;SDS011;48640;48.770;9.148;2023-11-19T05:01:30;0.10;;;0.00;;
62580;SDS011;48640;48.770;9.148;2023-11-19T05:03:59;0.05;;;0.00;;
62580;SDS011;48640;48.770;9.148;2023-11-19T05:06:26;0.20;;;0.20;;
62580;SDS011;48640;48.770;9.148;2023-11-19T05:08:54;0.00;;;0.00;;
62580;SDS011;48640;48.770;9.148;2023-11-19T05:11:21;0.17;;;0.10;;
62580;SDS011;48640;48.770;9.148;2023-11-19T05:13:48;0.00;;;0.00;;
62580;SDS011;48640;48.770;9.148;2023-11-19T05:16:16;0.10;;;0.10;;
62580;SDS011;48640;48.770;9.148;2023-11-19T05:18:44;0.05;;;0.05;;
62580;SDS011;48640;48.770;9.148;2023-11-19T05:21:12;0.10;;;0.00;;
62580;SDS011;48640;48.770;9.148;2023-11-19T05:23:39;0.10;;;0.00;;
62580;SDS011;48640;48.770;9.148;2023-11-19T05:26:07;0.20;;;0.20;;
62580;SDS011;48640;48.770;9.148;2023-11-19T05:28:33;0.00;;;0.00;;
62580;SDS011;48640;48.770;9.148;2023-11-19T05:31:00;0.10;;;0.10;;
62580;SDS011;48640;48.770;9.148;2023-11-19T05:33:27;0.00;;;0.00;;
62580;SDS011;48640;48.770;9.148;2023-11-19T05:35:54;0.00;;;0.00;;
62580;SDS011;48640;48.770;9.148;2023-11-19T05:38:23;0.00;;;0.00;;
62580;SDS011;48640;48.770;9.148;2023-11-19T05:40:50;0.00;;;0.00;;
62580;SDS011;48640;48.770;9.148;2023-11-19T05:43:17;0.15;;;0.15;;
62580;SDS011;48640;48.770;9.148;2023-11-19T05:45:44;0.00;;;0.00;;
62580;SDS011;48640;48.770;9.148;2023-11-19T05:48:11;0.60;;;0.13;;
62580;SDS011;48640;48.770;9.148;2023-11-19T05:50:38;0.10;;;0.00;;
62580;SDS011;48640;48.770;9.148;2023-11-19T05:53:05;0.45;;;0.20;;
62580;SDS011;48640;48.770;9.148;2023-11-19T05:55:36;0.15;;;0.10;;
62580;SDS011;48640;48.770;9.148;2023-11-19T05:58:10;0.15;;;0.03;;
62580;SDS011;48640;48.770;9.148;2023-11-19T06:00:38;0.00;;;0.00;;
62580;SDS011;48640;48.770;9.148;2023-11-19T06:03:05;0.10;;;0.08;;
62580;SDS011;48640;48.770;9.148;2023-11-19T06:05:32;1.17;;;0.15;;
62580;SDS011;48640;48.770;9.148;2023-11-19T06:07:59;0.73;;;0.00;;
62580;SDS011;48640;48.770;9.148;2023-11-19T06:10:26;0.00;;;0.00;;
62580;SDS011;48640;48.770;9.148;2023-11-19T06:12:57;0.00;;;0.00;;
62580;SDS011;48640;48.770;9.148;2023-11-19T06:15:24;0.03;;;0.03;;
62580;SDS011;48640;48.770;9.148;2023-11-19T06:17:51;0.13;;;0.10;;
62580;SDS011;48640;48.770;9.148;2023-11-19T06:20:18;0.10;;;0.10;;
62580;SDS011;48640;48.770;9.148;2023-11-19T06:22:46;0.20;;;0.10;;
62580;SDS011;48640;48.770;9.148;2023-11-19T06:25:13;0.00;;;0.00;;
62580;SDS011;48640;48.770;9.148;2023-11-19T06:27:40;1.65;;;0.10;;
62580;SDS011;48640;48.770;9.148;2023-11-19T06:30:09;0.10;;;0.10;;
62580;SDS011;48640;48.770;9.148;2023-11-19T06:32:37;0.00;;;0.00;;
62580;SDS011;48640;48.770;9.148;2023-11-19T06:35:04;0.25;;;0.15;;
62580;SDS011;48640;48.770;9.148;2023-11-19T06:37:32;0.03;;;0.03;;
62580;SDS011;48640;48.770;9.148;2023-11-19T06:39:59;0.00;;;0.00;;
62580;SDS011;48640;48.770;9.148;2023-11-19T06:42:30;0.10;;;0.10;;
62580;SDS011;48640;48.770;9.148;2023-11-19T06:44:57;0.47;;;0.20;;
62580;SDS011;48640;48.770;9.148;2023-11-19T06:47:26;0.28;;;0.10;;
62580;SDS011;48640;48.770;9.148;2023-11-19T06:49:53;0.00;;;0.00;;
62580;SDS011;48640;48.770;9.148;2023-11-19T06:52:21;0.15;;;0.08;;
62580;SDS011;48640;48.770;9.148;2023-11-19T06:54:48;0.40;;;0.10;;
62580;SDS011;48640;48.770;9.148;2023-11-19T06:57:15;0.00;;;0.00;;
62580;SDS011;48640;48.770;9.148;2023-11-19T06:59:42;0.25;;;0.10;;
62580;SDS011;48640;48.770;9.148;2023-11-19T07:02:09;0.10;;;0.10;;
62580;SDS011;48640;48.770;9.148;2023-11-19T07:04:37;0.00;;;0.00;;
62580;SDS011;48640;48.770;9.148;2023-11-19T07:07:05;0.08;;;0.05;;
62580;SDS011;48640;48.770;9.148;2023-11-19T07:09:32;0.28;;;0.20;;
62580;SDS011;48640;48.770;9.148;2023-11-19T07:11:59;0.10;;;0.10;;
62580;SDS011;48640;48.770;9.148;2023-11-19T07:16:56;0.30;;;0.22;;
62580;SDS011;48640;48.770;9.148;2023-11-19T07:19:23;0.20;;;0.20;;
62580;SDS011;48640;48.770;9.148;2023-11-19T07:21:52;0.20;;;0.20;;
62580;SDS011;48640;48.770;9.148;2023-11-19T07:24:20;0.10;;;0.10;;
62580;SDS011;48640;48.770;9.148;2023-11-19T07:26:47;0.10;;;0.10;;
62580;SDS011;48640;48.770;9.148;2023-11-19T07:29:15;0.22;;;0.10;;
62580;SDS011;48640;48.770;9.148;2023-11-19T07:31:43;0.35;;;0.35;;
62580;SDS011;48640;48.770;9.148;2023-11-19T07:34:10;0.10;;;0.10;;
62580;SDS011;48640;48.770;9.148;2023-11-19T07:36:39;0.25;;;0.17;;
62580;SDS011;48640;48.770;9.148;2023-11-19T07:39:08;0.30;;;0.20;;
62580;SDS011;48640;48.770;9.148;2023-11-19T07:41:35;0.00;;;0.00;;
62580;SDS011;48640;48.770;9.148;2023-11-19T07:44:02;0.10;;;0.10;;
62580;SDS011;48640;48.770;9.148;2023-11-19T07:46:29;0.28;;;0.20;;
62580;SDS011;48640;48.770;9.148;2023-11-19T07:48:58;0.10;;;0.10;;
62580;SDS011;48640;48.770;9.148;2023-11-19T07:51:25;0.22;;;0.10;;
62580;SDS011;48640;48.770;9.148;2023-11-19T07:54:04;0.20;;;0.13;;
62580;SDS011;48640;48.770;9.148;2023-11-19T07:56:35;0.10;;;0.10;;
62580;SDS011;48640;48.770;9.148;2023-11-19T07:59:02;0.45;;;0.30;;
62580;SDS011;48640;48.770;9.148;2023-11-19T08:01:30;0.70;;;0.40;;
62580;SDS011;48640;48.770;9.148;2023-11-19T08:03:56;0.15;;;0.15;;
62580;SDS011;48640;48.770;9.148;2023-11-19T08:06:26;0.10;;;0.10;;
62580;SDS011;48640;48.770;9.148;2023-11-19T08:08:53;0.43;;;0.20;;
62580;SDS011;48640;48.770;9.148;2023-11-19T08:11:20;0.52;;;0.47;;
62580;SDS011;48640;48.770;9.148;2023-11-19T08:13:49;0.30;;;0.17;;
62580;SDS011;48640;48.770;9.148;2023-11-19T08:16:15;0.50;;;0.20;;
62580;SDS011;48640;48.770;9.148;2023-11-19T08:18:42;0.20;;;0.20;;
62580;SDS011;48640;48.770;9.148;2023-11-19T08:21:10;0.20;;;0.20;;
62580;SDS011;48640;48.770;9.148;2023-11-19T08:23:37;1.10;;;0.28;;
62580;SDS011;48640;48.770;9.148;2023-11-19T08:26:04;0.35;;;0.35;;
62580;SDS011;48640;48.770;9.148;2023-11-19T08:28:31;0.68;;;0.40;;
62580;SDS011;48640;48.770;9.148;2023-11-19T08:31:01;0.32;;;0.20;;
62580;SDS011;48640;48.770;9.148;2023-11-19T08:33:29;0.47;;;0.40;;
62580;SDS011;48640;48.770;9.148;2023-11-19T08:35:56;0.38;;;0.20;;
62580;SDS011;48640;48.770;9.148;2023-11-19T08:38:23;0.75;;;0.22;;
62580;SDS011;48640;48.770;9.148;2023-11-19T08:40:50;0.22;;;0.15;;
62580;SDS011;48640;48.770;9.148;2023-11-19T08:43:17;0.60;;;0.20;;
62580;SDS011;48640;48.770;9.148;2023-11-19T08:45:44;0.10;;;0.10;;
62580;SDS011;48640;48.770;9.148;2023-11-19T08:48:14;0.32;;;0.20;;
62580;SDS011;48640;48.770;9.148;2023-11-19T08:50:42;0.60;;;0.30;;
62580;SDS011;48640;48.770;9.148;2023-11-19T08:53:09;0.13;;;0.10;;
62580;SDS011;48640;48.770;9.148;2023-11-19T08:55:36;0.75;;;0.30;;
62580;SDS011;48640;48.770;9.148;2023-11-19T08:58:03;0.00;;;0.00;;
62580;SDS011;48640;48.770;9.148;2023-11-19T09:00:30;0.30;;;0.20;;
62580;SDS011;48640;48.770;9.148;2023-11-19T09:02:58;0.38;;;0.10;;
62580;SDS011;48640;48.770;9.148;2023-11-19T09:05:36;0.75;;;0.50;;
62580;SDS011;48640;48.770;9.148;2023-11-19T09:08:06;0.20;;;0.15;;
62580;SDS011;48640;48.770;9.148;2023-11-19T09:10:33;0.20;;;0.10;;
62580;SDS011;48640;48.770;9.148;2023-11-19T09:13:00;0.77;;;0.60;;
62580;SDS011;48640;48.770;9.148;2023-11-19T09:15:27;0.20;;;0.20;;
62580;SDS011;48640;48.770;9.148;2023-11-19T09:17:55;0.40;;;0.15;;
62580;SDS011;48640;48.770;9.148;2023-11-19T09:20:24;0.20;;;0.20;;
62580;SDS011;48640;48.770;9.148;2023-11-19T09:22:54;0.77;;;0.20;;
62580;SDS011;48640;48.770;9.148;2023-11-19T09:25:21;0.20;;;0.15;;
62580;SDS011;48640;48.770;9.148;2023-11-19T09:27:48;0.45;;;0.30;;
62580;SDS011;48640;48.770;9.148;2023-11-19T09:30:15;1.02;;;0.50;;
62580;SDS011;48640;48.770;9.148;2023-11-19T09:32:42;1.80;;;0.70;;
62580;SDS011;48640;48.770;9.148;2023-11-19T09:35:09;1.08;;;0.60;;
62580;SDS011;48640;48.770;9.148;2023-11-19T09:37:38;0.83;;;0.50;;
62580;SDS011;48640;48.770;9.148;2023-11-19T09:40:07;0.57;;;0.30;;
62580;SDS011;48640;48.770;9.148;2023-11-19T09:42:38;0.10;;;0.10;;
62580;SDS011;48640;48.770;9.148;2023-11-19T09:45:12;0.63;;;0.30;;
62580;SDS011;48640;48.770;9.148;2023-11-19T09:47:40;0.50;;;0.20;;
62580;SDS011;48640;48.770;9.148;2023-11-19T09:50:09;1.02;;;0.40;;
62580;SDS011;48640;48.770;9.148;2023-11-19T09:52:40;0.20;;;0.20;;
62580;SDS011;48640;48.770;9.148;2023-11-19T09:55:09;0.73;;;0.43;;
62580;SDS011;48640;48.770;9.148;2023-11-19T09:57:36;0.75;;;0.52;;
62580;SDS011;48640;48.770;9.148;2023-11-19T10:00:05;0.97;;;0.53;;
62580;SDS011;48640;48.770;9.148;2023-11-19T10:02:36;0.68;;;0.32;;
62580;SDS011;48640;48.770;9.148;2023-11-19T10:05:06;0.32;;;0.22;;
62580;SDS011;48640;48.770;9.148;2023-11-19T10:07:35;0.75;;;0.40;;
62580;SDS011;48640;48.770;9.148;2023-11-19T10:10:03;0.20;;;0.10;;
62580;SDS011;48640;48.770;9.148;2023-11-19T10:12:32;0.63;;;0.47;;
62580;SDS011;48640;48.770;9.148;2023-11-19T10:14:59;0.60;;;0.20;;
62580;SDS011;48640;48.770;9.148;2023-11-19T10:17:28;0.52;;;0.30;;
62580;SDS011;48640;48.770;9.148;2023-11-19T10:19:58;0.52;;;0.30;;
62580;SDS011;48640;48.770;9.148;2023-11-19T10:22:26;0.70;;;0.30;;
62580;SDS011;48640;48.770;9.148;2023-11-19T10:24:54;5.45;;;0.65;;
62580;SDS011;48640;48.770;9.148;2023-11-19T10:27:23;0.55;;;0.40;;
62580;SDS011;48640;48.770;9.148;2023-11-19T10:29:52;0.65;;;0.45;;
62580;SDS011;48640;48.770;9.148;2023-11-19T10:32:19;0.95;;;0.47;;
62580;SDS011;48640;48.770;9.148;2023-11-19T10:34:46;1.70;;;0.65;;
62580;SDS011;48640;48.770;9.148;2023-11-19T10:37:27;2.03;;;1.30;;
62580;SDS011;48640;48.770;9.148;2023-11-19T10:39:56;0.52;;;0.30;;
62580;SDS011;48640;48.770;9.148;2023-11-19T10:42:23;0.40;;;0.20;;
62580;SDS011;48640;48.770;9.148;2023-11-19T10:44:52;0.40;;;0.30;;
62580;SDS011;48640;48.770;9.148;2023-11-19T10:47:19;1.33;;;0.28;;
62580;SDS011;48640;48.770;9.148;2023-11-19T10:49:48;0.50;;;0.32;;
62580;SDS011;48640;48.770;9.148;2023-11-19T10:52:17;0.38;;;0.20;;
62580;SDS011;48640;48.770;9.148;2023-11-19T10:54:46;0.13;;;0.13;;
62580;SDS011;48640;48.770;9.148;2023-11-19T10:57:16;0.13;;;0.10;;
62580;SDS011;48640;48.770;9.148;2023-11-19T10:59:46;0.22;;;0.20;;
62580;SDS011;48640;48.770;9.148;2023-11-19T11:02:16;0.47;;;0.30;;
62580;SDS011;48640;48.770;9.148;2023-11-19T11:04:47;0.10;;;0.10;;
62580;SDS011;48640;48.770;9.148;2023-11-19T11:07:16;0.30;;;0.20;;
62580;SDS011;48640;48.770;9.148;2023-11-19T11:09:47;0.75;;;0.40;;
62580;SDS011;48640;48.770;9.148;2023-11-19T11:12:15;0.30;;;0.30;;
62580;SDS011;48640;48.770;9.148;2023-11-19T11:14:48;0.17;;;0.10;;
62580;SDS011;48640;48.770;9.148;2023-11-19T11:17:17;0.80;;;0.20;;
62580;SDS011;48640;48.770;9.148;2023-11-19T11:19:45;0.32;;;0.17;;
62580;SDS011;48640;48.770;9.148;2023-11-19T11:22:11;1.23;;;0.38;;
62580;SDS011;48640;48.770;9.148;2023-11-19T11:24:53;2.78;;;0.95;;
62580;SDS011;48640;48.770;9.148;2023-11-19T11:27:48;1.13;;;0.60;;
62580;SDS011;48640;48.770;9.148;2023-11-19T11:30:26;1.40;;;0.43;;
62580;SDS011;48640;48.770;9.148;2023-11-19T11:33:05;1.13;;;0.65;;
62580;SDS011;48640;48.770;9.148;2023-11-19T11:35:42;0.90;;;0.40;;
62580;SDS011;48640;48.770;9.148;2023-11-19T11:38:21;0.25;;;0.20;;
62580;SDS011;48640;48.770;9.148;2023-11-19T11:43:45;2.45;;;0.30;;
62580;SDS011;48640;48.770;9.148;2023-11-19T11:49:18;0.95;;;0.32;;
62580;SDS011;48640;48.770;9.148;2023-11-19T11:51:57;0.50;;;0.30;;
62580;SDS011;48640;48.770;9.148;2023-11-19T11:54:25;0.68;;;0.35;;
62580;SDS011;48640;48.770;9.148;2023-11-19T11:57:03;1.17;;;0.50;;
62580;SDS011;48640;48.770;9.148;2023-11-19T11:59:42;0.98;;;0.50;;
62580;SDS011;48640;48.770;9.148;2023-11-19T12:02:12;0.43;;;0.30;;
62580;SDS011;48640;48.770;9.148;2023-11-19T12:04:42;0.45;;;0.38;;
62580;SDS011;48640;48.770;9.148;2023-11-19T12:07:13;0.15;;;0.00;;
62580;SDS011;48640;48.770;9.148;2023-11-19T12:09:41;0.22;;;0.15;;
62580;SDS011;48640;48.770;9.148;2023-11-19T12:12:17;0.20;;;0.20;;
62580;SDS011;48640;48.770;9.148;2023-11-19T12:15:03;0.40;;;0.30;;
62580;SDS011;48640;48.770;9.148;2023-11-19T12:17:48;1.10;;;0.20;;
62580;SDS011;48640;48.770;9.148;2023-11-19T12:20:17;0.45;;;0.20;;
62580;SDS011;48640;48.770;9.148;2023-11-19T12:22:44;0.60;;;0.30;;
62580;SDS011;48640;48.770;9.148;2023-11-19T12:25:14;0.63;;;0.30;;
62580;SDS011;48640;48.770;9.148;2023-11-19T12:27:43;1.75;;;0.52;;
62580;SDS011;48640;48.770;9.148;2023-11-19T12:30:11;0.45;;;0.20;;
62580;SDS011;48640;48.770;9.148;2023-11-19T12:32:38;0.17;;;0.17;;
62580;SDS011;48640;48.770;9.148;2023-11-19T12:35:06;0.60;;;0.32;;
62580;SDS011;48640;48.770;9.148;2023-11-19T12:37:40;0.85;;;0.35;;
62580;SDS011;48640;48.770;9.148;2023-11-19T12:40:11;0.25;;;0.13;;
62580;SDS011;48640;48.770;9.148;2023-11-19T12:42:38;0.32;;;0.17;;
62580;SDS011;48640;48.770;9.148;2023-11-19T12:45:06;0.40;;;0.22;;
62580;SDS011;48640;48.770;9.148;2023-11-19T12:47:34;0.77;;;0.60;;
62580;SDS011;48640;48.770;9.148;2023-11-19T12:50:02;0.82;;;0.30;;
62580;SDS011;48640;48.770;9.148;2023-11-19T12:52:29;0.32;;;0.17;;
62580;SDS011;48640;48.770;9.148;2023-11-19T12:54:57;0.20;;;0.17;;
62580;SDS011;48640;48.770;9.148;2023-11-19T12:57:35;0.65;;;0.40;;
62580;SDS011;48640;48.770;9.148;2023-11-19T13:00:05;0.25;;;0.10;;
62580;SDS011;48640;48.770;9.148;2023-11-19T13:02:45;0.75;;;0.30;;
62580;SDS011;48640;48.770;9.148;2023-11-19T13:05:23;0.32;;;0.32;;
62580;SDS011;48640;48.770;9.148;2023-11-19T13:07:51;0.25;;;0.20;;
62580;SDS011;48640;48.770;9.148;2023-11-19T13:10:25;0.17;;;0.17;;
62580;SDS011;48640;48.770;9.148;2023-11-19T13:13:04;0.20;;;0.20;;
62580;SDS011;48640;48.770;9.148;2023-11-19T13:15:33;0.10;;;0.10;;
62580;SDS011;48640;48.770;9.148;2023-11-19T13:18:00;0.55;;;0.20;;
62580;SDS011;48640;48.770;9.148;2023-11-19T13:20:27;0.77;;;0.20;;
62580;SDS011;48640;48.770;9.148;2023-11-19T13:22:55;0.13;;;0.13;;
62580;SDS011;48640;48.770;9.148;2023-11-19T13:25:23;0.77;;;0.28;;
62580;SDS011;48640;48.770;9.148;2023-11-19T13:27:51;1.75;;;0.22;;
62580;SDS011;48640;48.770;9.148;2023-11-19T13:30:18;3.17;;;1.15;;
62580;SDS011;48640;48.770;9.148;2023-11-19T13:32:45;0.28;;;0.13;;
62580;SDS011;48640;48.770;9.148;2023-11-19T13:35:12;0.80;;;0.32;;
62580;SDS011;48640;48.770;9.148;2023-11-19T13:37:39;1.65;;;0.50;;
62580;SDS011;48640;48.770;9.148;2023-11-19T13:40:07;1.98;;;0.80;;
62580;SDS011;48640;48.770;9.148;2023-11-19T13:42:35;0.77;;;0.35;;
62580;SDS011;48640;48.770;9.148;2023-11-19T13:45:07;0.10;;;0.10;;
62580;SDS011;48640;48.770;9.148;2023-11-19T13:47:37;0.40;;;0.25;;
62580;SDS011;48640;48.770;9.148;2023-11-19T13:50:06;1.05;;;0.20;;
62580;SDS011;48640;48.770;9.148;2023-11-19T13:52:34;0.28;;;0.20;;
62580;SDS011;48640;48.770;9.148;2023-11-19T13:55:03;1.73;;;0.20;;
62580;SDS011;48640;48.770;9.148;2023-11-19T13:57:31;0.80;;;0.40;;
62580;SDS011;48640;48.770;9.148;2023-11-19T13:59:59;1.10;;;0.45;;
62580;SDS011;48640;48.770;9.148;2023-11-19T14:02:27;2.05;;;0.30;;
62580;SDS011;48640;48.770;9.148;2023-11-19T14:04:54;0.88;;;0.65;;
62580;SDS011;48640;48.770;9.148;2023-11-19T14:07:21;0.70;;;0.30;;
62580;SDS011;48640;48.770;9.148;2023-11-19T14:09:48;0.10;;;0.10;;
62580;SDS011;48640;48.770;9.148;2023-11-19T14:12:15;0.70;;;0.40;;
62580;SDS011;48640;48.770;9.148;2023-11-19T14:14:42;0.57;;;0.30;;
62580;SDS011;48640;48.770;9.148;2023-11-19T14:17:09;0.65;;;0.30;;
62580;SDS011;48640;48.770;9.148;2023-11-19T14:19:39;0.10;;;0.10;;
62580;SDS011;48640;48.770;9.148;2023-11-19T14:22:06;1.50;;;0.47;;
62580;SDS011;48640;48.770;9.148;2023-11-19T14:24:33;3.30;;;0.63;;
62580;SDS011;48640;48.770;9.148;2023-11-19T14:27:00;0.20;;;0.20;;
62580;SDS011;48640;48.770;9.148;2023-11-19T14:29:27;0.43;;;0.32;;
62580;SDS011;48640;48.770;9.148;2023-11-19T14:31:54;2.25;;;0.38;;
62580;SDS011;48640;48.770;9.148;2023-11-19T14:34:21;0.95;;;0.30;;
62580;SDS011;48640;48.770;9.148;2023-11-19T14:36:51;0.93;;;0.40;;
62580;SDS011;48640;48.770;9.148;2023-11-19T14:39:18;1.33;;;0.30;;
62580;SDS011;48640;48.770;9.148;2023-11-19T14:41:45;0.22;;;0.17;;
62580;SDS011;48640;48.770;9.148;2023-11-19T14:44:12;0.13;;;0.13;;
62580;SDS011;48640;48.770;9.148;2023-11-19T14:46:39;0.43;;;0.28;;
62580;SDS011;48640;48.770;9.148;2023-11-19T14:49:06;1.98;;;0.40;;
62580;SDS011;48640;48.770;9.148;2023-11-19T14:51:35;0.40;;;0.30;;
62580;SDS011;48640;48.770;9.148;2023-11-19T14:54:03;1.85;;;0.65;;
62580;SDS011;48640;48.770;9.148;2023-11-19T14:56:30;0.73;;;0.25;;
62580;SDS011;48640;48.770;9.148;2023-11-19T14:58:57;0.03;;;0.03;;
62580;SDS011;48640;48.770;9.148;2023-11-19T15:01:24;0.80;;;0.35;;
62580;SDS011;48640;48.770;9.148;2023-11-19T15:03:50;0.57;;;0.32;;